Terminal Aerodrome Forecast
Issued by NWS

Home | Current Version | Previous Version | Graphics & Text | Print | Product List | Glossary On
Versions: 1 2 3 4 5 6 7 8 9 10 11 12 13 14
910
FTUS43 KBIS 081120
TAFMOT
TAF
KMOT 081120Z 0812/0912 29017G25KT 3SM BLSN BKN050
     FM081500 29014KT P6SM BKN060=

USA.gov is the U.S. government's official web portal to all federal, state and local government web resources and services.